Agoura, California
Current Conditions -  °F | °C
As of 10:51 PM on Thursday 30 Oct 2014 (Local Time) from KVNY Reporting Station
Clear Clear  
Wind Chill: 18°   Ceiling: Unl
Heat Index: 18°   Visibility: 10mi
Dew Point: 13°   Wind: 5mph
Humidity: 75%   Direction: 80°E
Pressure: 29.98"   Gusts: NA
Location:  34.1232°N, 118.77°W
Report Text: KVNY 310551Z 08004KT 10SM CLR 18/13 A2998 RMK AO2 SLP143 T01780133 10250 20178 53007
Loading
Personal Weather Stations






























Interactive Weather Map
Tropical Storm Tracking
New forecast layout! Learn more

10-Day Weather Forecast

Advertisements
Track Severe Weather on mobile